createdAt,value
2022-11-14T00:03:26.109Z,90.0
2022-11-14T00:08:32.554Z,90.0
2022-11-14T00:13:38.878Z,90.0
2022-11-14T00:18:44.728Z,90.0
2022-11-14T00:23:50.933Z,90.0
2022-11-14T00:28:57.149Z,90.0
2022-11-14T00:34:03.353Z,90.0
2022-11-14T00:39:09.556Z,90.0
2022-11-14T00:44:15.764Z,90.0
2022-11-14T00:49:21.972Z,90.0
2022-11-14T00:54:28.183Z,90.0
2022-11-14T00:59:34.394Z,90.0
2022-11-14T01:04:40.605Z,90.5
2022-11-14T01:09:46.815Z,90.5
2022-11-14T01:14:52.036Z,90.5
2022-11-14T01:19:58.245Z,90.5
2022-11-14T01:25:03.482Z,90.5
2022-11-14T01:30:09.700Z,90.5
2022-11-14T01:35:15.894Z,90.5
2022-11-14T01:40:22.108Z,90.5
2022-11-14T01:45:28.305Z,90.5
2022-11-14T01:50:34.518Z,91.0
2022-11-14T01:55:40.730Z,91.0
2022-11-14T02:00:46.929Z,91.0
2022-11-14T02:05:53.136Z,91.0
2022-11-14T02:10:59.342Z,91.0
2022-11-14T02:16:05.551Z,91.0
2022-11-14T02:21:11.774Z,91.0
2022-11-14T02:26:17.967Z,91.0
2022-11-14T02:31:24.173Z,91.0
2022-11-14T02:36:30.380Z,91.0
2022-11-14T02:41:36.587Z,91.0
2022-11-14T02:46:42.789Z,91.0
2022-11-14T02:51:48.996Z,91.0
2022-11-14T02:56:55.223Z,91.5
2022-11-14T03:02:01.465Z,91.0
2022-11-14T03:07:07.740Z,91.5
2022-11-14T03:17:19.077Z,91.5
2022-11-14T03:22:24.298Z,91.5
2022-11-14T03:27:30.509Z,91.5
2022-11-14T03:32:35.749Z,91.5
2022-11-14T03:37:41.963Z,91.5
2022-11-14T03:42:48.170Z,91.5
2022-11-14T03:47:54.374Z,91.5
2022-11-14T03:53:00.584Z,91.5
2022-11-14T03:58:06.791Z,91.5
2022-11-14T04:03:12.999Z,91.5
2022-11-14T04:08:19.200Z,91.5
2022-11-14T04:13:25.411Z,92.0
2022-11-14T04:18:32.012Z,92.0
2022-11-14T04:23:37.832Z,92.0
2022-11-14T04:28:44.032Z,92.0
2022-11-14T04:33:50.245Z,92.0
2022-11-14T04:38:56.452Z,92.0
2022-11-14T04:44:02.657Z,92.0
2022-11-14T04:49:08.867Z,92.0
2022-11-14T04:54:15.075Z,92.0
2022-11-14T04:59:21.426Z,92.0
2022-11-14T05:04:27.483Z,92.0
2022-11-14T05:09:33.689Z,92.0
2022-11-14T05:14:39.902Z,92.0
2022-11-14T05:19:45.133Z,92.5
2022-11-14T05:24:51.341Z,92.5
2022-11-14T05:29:56.586Z,92.5
2022-11-14T05:35:02.806Z,92.5
2022-11-14T05:40:09.005Z,92.5
2022-11-14T05:45:15.207Z,92.5
2022-11-14T05:50:21.421Z,92.5
2022-11-14T05:55:27.631Z,92.5
2022-11-14T06:00:39.650Z,92.5
2022-11-14T06:05:40.045Z,92.5
2022-11-14T06:10:46.251Z,92.5
2022-11-14T06:15:52.452Z,92.5
2022-11-14T06:20:58.672Z,92.5
2022-11-14T06:26:04.880Z,92.5
2022-11-14T06:31:11.085Z,92.5
2022-11-14T06:36:17.289Z,92.5
2022-11-14T06:41:23.499Z,92.5
2022-11-14T06:46:29.699Z,93.0
2022-11-14T06:51:35.904Z,93.0
2022-11-14T06:56:42.118Z,93.0
2022-11-14T07:01:48.322Z,93.0
2022-11-14T07:06:54.590Z,93.0
2022-11-14T07:12:00.737Z,93.0
2022-11-14T07:17:05.971Z,93.0
2022-11-14T07:22:12.175Z,93.0
2022-11-14T07:27:18.443Z,93.0
2022-11-14T07:32:24.597Z,93.5
2022-11-14T07:37:30.794Z,93.5
2022-11-14T07:42:37.001Z,93.5
2022-11-14T07:47:43.213Z,93.5
2022-11-14T07:52:49.419Z,93.5
2022-11-14T07:57:55.625Z,93.5
2022-11-14T08:03:01.838Z,94.0
2022-11-14T08:08:08.038Z,94.0
2022-11-14T08:18:20.458Z,94.5
2022-11-14T08:23:26.665Z,94.5
2022-11-14T08:28:33.333Z,94.5
2022-11-14T08:33:39.091Z,94.5
2022-11-14T08:38:45.285Z,95.0
2022-11-14T08:43:51.492Z,95.0
2022-11-14T08:48:57.706Z,95.0
2022-11-14T08:54:03.910Z,95.0
2022-11-14T08:59:10.109Z,95.5
2022-11-14T09:04:15.443Z,95.5
2022-11-14T09:09:21.579Z,95.5
2022-11-14T09:14:26.796Z,95.5
2022-11-14T09:19:32.993Z,95.5
2022-11-14T09:24:38.231Z,95.0
2022-11-14T09:29:44.460Z,95.0
2022-11-14T09:34:50.662Z,95.0
2022-11-14T09:39:56.862Z,95.0
2022-11-14T09:45:03.066Z,95.5
2022-11-14T09:50:09.276Z,95.0
2022-11-14T09:55:15.474Z,95.0
2022-11-14T10:00:21.960Z,95.0
2022-11-14T10:05:27.895Z,95.0
2022-11-14T10:10:38.548Z,94.5
2022-11-14T10:15:40.322Z,94.5
2022-11-14T10:20:46.518Z,94.5
2022-11-14T10:25:52.724Z,94.5
2022-11-14T10:30:58.933Z,94.0
2022-11-14T10:36:05.134Z,94.0
2022-11-14T10:41:28.395Z,94.0
2022-11-14T10:46:17.566Z,93.5
2022-11-14T10:51:23.762Z,93.5
2022-11-14T10:56:29.968Z,93.0
2022-11-14T11:01:36.300Z,93.0
2022-11-14T11:06:42.388Z,93.0
2022-11-14T11:11:47.616Z,92.5
2022-11-14T11:16:53.830Z,92.5
2022-11-14T11:22:00.048Z,92.5
2022-11-14T11:27:06.237Z,92.5
2022-11-14T11:32:12.447Z,92.0
2022-11-14T11:37:18.737Z,92.0
2022-11-14T11:42:24.864Z,92.0
2022-11-14T11:47:31.076Z,92.0
2022-11-14T11:52:37.282Z,92.0
2022-11-14T11:57:43.495Z,92.0
2022-11-14T12:02:50.329Z,92.5
2022-11-14T12:07:55.929Z,92.5
2022-11-14T12:13:02.119Z,92.5
2022-11-14T12:18:08.315Z,92.5
2022-11-14T12:23:14.544Z,92.5
2022-11-14T12:28:20.730Z,92.5
2022-11-14T12:33:27.026Z,92.5
2022-11-14T12:38:33.153Z,92.5
2022-11-14T12:43:39.691Z,92.5
2022-11-14T12:48:45.574Z,92.5
2022-11-14T12:53:51.774Z,92.5
2022-11-14T12:58:57.043Z,92.5
2022-11-14T13:04:03.231Z,92.5
2022-11-14T13:09:08.456Z,92.5
2022-11-14T13:14:14.683Z,92.5
2022-11-14T13:19:20.883Z,92.5
2022-11-14T13:24:26.105Z,92.0
2022-11-14T13:29:32.325Z,92.0
2022-11-14T13:34:38.531Z,92.0
2022-11-14T13:39:44.729Z,92.0
2022-11-14T13:44:50.936Z,92.0
2022-11-14T13:49:56.157Z,92.0
2022-11-14T13:55:02.375Z,92.0
2022-11-14T14:00:08.695Z,92.0
2022-11-14T14:05:14.785Z,92.0
2022-11-14T14:10:21.003Z,92.0
2022-11-14T14:15:27.216Z,92.0
2022-11-14T14:20:33.406Z,92.0
2022-11-14T14:25:39.617Z,92.0
2022-11-14T14:30:45.829Z,92.0
2022-11-14T14:35:52.030Z,92.0
2022-11-14T14:40:58.237Z,92.0
2022-11-14T14:46:04.452Z,92.0
2022-11-14T14:51:10.653Z,92.0
2022-11-14T14:56:16.876Z,92.0
2022-11-14T15:01:23.125Z,92.0
2022-11-14T15:06:29.284Z,92.0
2022-11-14T15:11:34.510Z,92.0
2022-11-14T15:16:40.718Z,92.0
2022-11-14T15:21:46.931Z,92.0
2022-11-14T15:26:52.167Z,91.5
2022-11-14T15:31:58.377Z,91.5
2022-11-14T15:37:04.579Z,91.5
2022-11-14T15:42:10.788Z,91.5
2022-11-14T15:47:17.045Z,91.5
2022-11-14T15:52:23.205Z,91.5
2022-11-14T15:57:29.411Z,91.5
2022-11-14T16:02:35.628Z,91.5
2022-11-14T16:07:41.823Z,91.5
2022-11-14T16:12:52.053Z,91.0
2022-11-14T16:17:54.240Z,91.5
2022-11-14T16:23:00.447Z,91.5
2022-11-14T16:28:06.654Z,91.5
2022-11-14T16:33:12.862Z,91.5
2022-11-14T16:38:19.071Z,91.5
2022-11-14T16:43:25.281Z,91.5
2022-11-14T16:48:31.486Z,91.5
2022-11-14T16:53:37.695Z,91.5
2022-11-14T16:58:43.911Z,91.5
2022-11-14T17:03:50.111Z,91.5
2022-11-14T17:08:56.313Z,91.5
2022-11-14T17:14:01.562Z,91.5
2022-11-14T17:19:07.768Z,91.5
2022-11-14T17:24:13.001Z,91.5
2022-11-14T17:29:19.210Z,91.5
2022-11-14T17:34:25.409Z,91.5
2022-11-14T17:39:31.616Z,91.5
2022-11-14T17:44:37.829Z,91.5
2022-11-14T17:49:44.028Z,91.5
2022-11-14T17:54:50.239Z,91.5
2022-11-14T17:59:56.540Z,91.5
2022-11-14T18:05:02.655Z,91.5
2022-11-14T18:10:08.863Z,91.5
2022-11-14T18:15:15.089Z,91.5
2022-11-14T18:20:21.282Z,92.0
2022-11-14T18:25:27.488Z,92.0
2022-11-14T18:30:41.515Z,91.5
2022-11-14T18:35:39.897Z,91.5
2022-11-14T18:40:46.111Z,91.5
2022-11-14T18:45:52.314Z,91.5
2022-11-14T18:50:58.522Z,91.5
2022-11-14T18:56:04.728Z,91.5
2022-11-14T19:01:10.987Z,91.5
2022-11-14T19:06:17.149Z,91.5
2022-11-14T19:11:22.386Z,91.5
2022-11-14T19:16:28.591Z,91.5
2022-11-14T19:21:33.828Z,92.0
2022-11-14T19:26:40.028Z,92.5
2022-11-14T19:31:46.266Z,92.5
2022-11-14T19:37:00.030Z,92.5
2022-11-14T19:41:58.680Z,92.5
2022-11-14T19:47:04.863Z,92.5
2022-11-14T19:52:11.749Z,93.0
2022-11-14T19:57:17.284Z,93.0
2022-11-14T20:02:23.508Z,93.0
2022-11-14T20:07:29.841Z,93.0
2022-11-14T20:12:35.901Z,93.0
2022-11-14T20:17:42.109Z,93.0
2022-11-14T20:22:48.334Z,93.5
2022-11-14T20:27:54.526Z,93.5
2022-11-14T20:33:00.735Z,94.0
2022-11-14T20:38:06.940Z,94.5
2022-11-14T20:43:13.143Z,94.5
2022-11-14T20:48:19.356Z,94.5
2022-11-14T20:53:25.564Z,94.5
2022-11-14T20:58:31.776Z,94.5
2022-11-14T21:03:37.993Z,94.5
2022-11-14T21:08:43.213Z,94.5
2022-11-14T21:13:49.423Z,94.5
2022-11-14T21:18:54.664Z,94.5
2022-11-14T21:24:00.860Z,94.5
2022-11-14T21:29:07.070Z,95.0
2022-11-14T21:34:13.273Z,95.0
2022-11-14T21:39:19.485Z,94.5
2022-11-14T21:44:25.701Z,94.5
2022-11-14T21:49:31.906Z,94.5
2022-11-14T21:54:38.117Z,94.5
2022-11-14T21:59:44.316Z,94.5
2022-11-14T22:04:50.525Z,94.5
2022-11-14T22:09:56.733Z,94.5
2022-11-14T22:15:02.948Z,95.0
2022-11-14T22:20:09.153Z,95.0
2022-11-14T22:25:15.358Z,95.0
2022-11-14T22:30:21.563Z,95.0
2022-11-14T22:35:27.779Z,95.0
2022-11-14T22:40:33.980Z,95.5
2022-11-14T22:45:40.182Z,95.5
2022-11-14T22:50:46.395Z,95.5
2022-11-14T22:55:52.597Z,95.5
2022-11-14T23:00:58.813Z,95.5
2022-11-14T23:06:04.064Z,95.5
2022-11-14T23:11:10.251Z,95.5
2022-11-14T23:16:15.489Z,95.5
2022-11-14T23:21:21.694Z,95.5
2022-11-14T23:26:27.903Z,95.5
2022-11-14T23:31:34.110Z,95.5
2022-11-14T23:36:40.326Z,96.0
2022-11-14T23:41:46.525Z,96.0
2022-11-14T23:46:52.758Z,96.0
2022-11-14T23:51:58.942Z,96.0
2022-11-14T23:57:05.160Z,96.0
